createdAt,value
2022-11-27T00:01:20.159Z,94.43
2022-11-27T00:03:48.206Z,95.51
2022-11-27T00:06:20.425Z,95.40
2022-11-27T00:08:48.636Z,95.79
2022-11-27T00:11:21.301Z,95.88
2022-11-27T00:13:49.912Z,95.79
2022-11-27T00:16:18.677Z,96.38
2022-11-27T00:18:46.966Z,96.22
2022-11-27T00:21:19.122Z,96.88
2022-11-27T00:23:47.039Z,96.60
2022-11-27T00:26:14.907Z,96.80
2022-11-27T00:28:43.019Z,96.95
2022-11-27T00:31:15.363Z,96.43
2022-11-27T00:33:43.668Z,97.25
2022-11-27T00:36:12.564Z,97.31
2022-11-27T00:38:42.002Z,97.21
2022-11-27T00:41:11.327Z,97.31
2022-11-27T00:43:44.475Z,97.25
2022-11-27T00:46:13.136Z,97.58
2022-11-27T00:48:41.096Z,97.60
2022-11-27T00:51:10.705Z,96.65
2022-11-27T00:53:38.587Z,96.55
2022-11-27T00:56:08.979Z,97.19
2022-11-27T00:58:37.166Z,96.11
2022-11-27T01:01:07.860Z,96.30
2022-11-27T01:03:36.285Z,96.11
2022-11-27T01:06:05.084Z,95.93
2022-11-27T01:08:33.726Z,95.78
2022-11-27T01:11:02.460Z,95.14
2022-11-27T01:13:34.120Z,95.11
2022-11-27T01:16:02.842Z,94.98
2022-11-27T01:18:31.202Z,94.93
2022-11-27T01:20:59.342Z,94.22
2022-11-27T01:23:27.518Z,94.84
2022-11-27T01:25:55.489Z,95.14
2022-11-27T01:28:25.104Z,95.57
2022-11-27T01:30:55.079Z,95.59
2022-11-27T01:33:23.019Z,94.96
2022-11-27T01:35:56.565Z,95.60
2022-11-27T01:38:25.683Z,95.11
2022-11-27T01:40:58.993Z,95.87
2022-11-27T01:43:40.850Z,95.42
2022-11-27T01:46:26.662Z,96.33
2022-11-27T01:48:57.082Z,95.77
2022-11-27T01:51:25.606Z,95.21
2022-11-27T01:53:55.109Z,95.38
2022-11-27T01:56:25.055Z,95.65
2022-11-27T01:58:53.619Z,95.73
2022-11-27T02:01:24.502Z,96.33
2022-11-27T02:03:52.514Z,95.55
2022-11-27T02:06:20.568Z,96.12
2022-11-27T02:08:48.624Z,95.93
2022-11-27T02:11:26.373Z,96.47
2022-11-27T02:14:00.749Z,96.54
2022-11-27T02:16:37.924Z,96.16
2022-11-27T02:19:16.438Z,96.54
2022-11-27T02:21:54.058Z,96.34
2022-11-27T02:24:43.439Z,96.10
2022-11-27T02:27:37.968Z,96.46
2022-11-27T02:30:08.653Z,96.70
2022-11-27T02:32:41.312Z,96.94
2022-11-27T02:35:15.976Z,97.05
2022-11-27T02:37:49.456Z,96.64
2022-11-27T02:40:22.979Z,96.88
2022-11-27T02:42:54.650Z,96.93
2022-11-27T02:45:30.302Z,96.85
2022-11-27T02:47:58.965Z,96.80
2022-11-27T02:50:31.047Z,96.33
2022-11-27T02:53:03.102Z,96.11
2022-11-27T02:55:34.329Z,96.28
2022-11-27T02:58:04.937Z,95.47
2022-11-27T03:00:36.323Z,95.49
2022-11-27T03:03:08.102Z,96.14
2022-11-27T03:05:41.026Z,96.02
2022-11-27T03:08:15.402Z,96.50
2022-11-27T03:10:52.595Z,96.52
2022-11-27T03:13:20.989Z,96.13
2022-11-27T03:16:01.333Z,96.18
2022-11-27T03:18:37.416Z,96.08
2022-11-27T03:21:11.813Z,95.76
2022-11-27T03:23:39.894Z,95.98
2022-11-27T03:26:07.818Z,96.44
2022-11-27T03:28:36.462Z,96.13
2022-11-27T03:31:06.365Z,95.98
2022-11-27T03:33:34.418Z,95.54
2022-11-27T03:36:02.302Z,96.10
2022-11-27T03:38:30.284Z,95.79
2022-11-27T03:41:06.218Z,96.31
2022-11-27T03:43:41.487Z,95.67
2022-11-27T03:46:21.493Z,95.88
2022-11-27T03:48:57.627Z,96.16
2022-11-27T03:51:35.880Z,95.77
2022-11-27T03:54:12.276Z,95.96
2022-11-27T03:56:44.838Z,95.77
2022-11-27T03:59:17.984Z,95.31
2022-11-27T04:01:47.561Z,95.69
2022-11-27T04:04:15.772Z,95.98
2022-11-27T04:06:43.724Z,95.85
2022-11-27T04:09:11.907Z,95.83
2022-11-27T04:11:39.817Z,95.67
2022-11-27T04:14:07.976Z,95.65
2022-11-27T04:16:36.193Z,96.38
2022-11-27T04:19:05.513Z,96.23
2022-11-27T04:21:33.500Z,96.36
2022-11-27T04:24:01.804Z,95.92
2022-11-27T04:26:29.633Z,96.23
2022-11-27T04:28:57.491Z,96.29
2022-11-27T04:31:25.608Z,95.97
2022-11-27T04:33:53.490Z,95.88
2022-11-27T04:36:22.721Z,95.18
2022-11-27T04:38:50.901Z,95.88
2022-11-27T04:41:19.001Z,95.60
2022-11-27T04:43:46.876Z,95.72
2022-11-27T04:46:15.224Z,95.50
2022-11-27T04:48:43.133Z,94.82
2022-11-27T04:51:11.548Z,94.29
2022-11-27T04:53:41.099Z,93.72
2022-11-27T04:56:09.263Z,93.60
2022-11-27T04:58:37.173Z,93.44
2022-11-27T05:01:05.124Z,92.85
2022-11-27T05:03:33.111Z,93.36
2022-11-27T05:06:00.962Z,93.12
2022-11-27T05:08:31.816Z,93.16
2022-11-27T05:11:04.288Z,92.95
2022-11-27T05:13:32.519Z,93.07
2022-11-27T05:16:00.730Z,93.23
2022-11-27T05:18:28.896Z,93.28
2022-11-27T05:21:01.130Z,92.89
2022-11-27T05:23:29.405Z,93.50
2022-11-27T05:25:57.845Z,93.11
2022-11-27T05:28:27.494Z,92.92
2022-11-27T05:30:55.658Z,92.59
2022-11-27T05:33:23.530Z,92.96
2022-11-27T05:35:51.465Z,92.18
2022-11-27T05:38:19.623Z,93.23
2022-11-27T05:40:47.410Z,92.10
2022-11-27T05:43:15.595Z,92.77
2022-11-27T05:45:44.824Z,93.48
2022-11-27T05:48:12.656Z,93.07
2022-11-27T05:50:40.540Z,93.05
2022-11-27T05:53:08.488Z,92.71
2022-11-27T05:55:36.427Z,92.42
2022-11-27T05:58:04.531Z,92.38
2022-11-27T06:00:32.394Z,93.56
2022-11-27T06:03:01.820Z,92.96
2022-11-27T06:05:30.152Z,92.94
2022-11-27T06:07:58.094Z,92.86
2022-11-27T06:10:26.094Z,92.27
2022-11-27T06:12:54.265Z,92.98
2022-11-27T06:15:22.111Z,92.47
2022-11-27T06:17:50.099Z,92.71
2022-11-27T06:20:20.475Z,92.78
2022-11-27T06:22:48.498Z,92.66
2022-11-27T06:25:16.474Z,93.18
2022-11-27T06:27:44.537Z,93.09
2022-11-27T06:30:13.584Z,92.83
2022-11-27T06:32:41.623Z,93.08
2022-11-27T06:35:10.511Z,92.98
2022-11-27T06:37:39.797Z,92.76
2022-11-27T06:40:09.053Z,92.08
2022-11-27T06:42:36.959Z,92.40
2022-11-27T06:45:05.369Z,92.53
2022-11-27T06:47:33.341Z,92.62
2022-11-27T06:50:01.337Z,93.18
2022-11-27T06:52:31.949Z,93.11
2022-11-27T06:55:02.866Z,93.02
2022-11-27T06:57:30.655Z,92.60
2022-11-27T06:59:58.519Z,92.64
2022-11-27T07:02:26.565Z,92.66
2022-11-27T07:04:54.453Z,92.93
2022-11-27T07:07:22.380Z,92.73
2022-11-27T07:09:50.643Z,93.15
2022-11-27T07:12:20.171Z,92.77
2022-11-27T07:14:48.057Z,92.73
2022-11-27T07:17:15.966Z,92.87
2022-11-27T07:19:43.834Z,92.59
2022-11-27T07:22:11.766Z,92.49
2022-11-27T07:24:39.932Z,92.84
2022-11-27T07:27:08.630Z,92.52
2022-11-27T07:29:37.809Z,92.67
2022-11-27T07:32:05.865Z,92.24
2022-11-27T07:34:33.766Z,92.20
2022-11-27T07:37:01.720Z,91.78
2022-11-27T07:40:00.373Z,92.42
2022-11-27T07:45:09.223Z,91.60
2022-11-27T07:47:37.422Z,91.27
2022-11-27T07:50:07.367Z,91.46
2022-11-27T07:52:41.041Z,90.91
2022-11-27T07:55:10.691Z,90.85
2022-11-27T07:57:38.658Z,90.38
2022-11-27T08:00:09.624Z,89.96
2022-11-27T08:02:37.477Z,89.69
2022-11-27T08:05:10.982Z,89.57
2022-11-27T08:07:40.640Z,90.13
2022-11-27T08:10:09.852Z,90.46
2022-11-27T08:12:37.800Z,90.71
2022-11-27T08:15:06.358Z,90.36
2022-11-27T08:17:35.760Z,90.44
2022-11-27T08:20:03.990Z,90.92
2022-11-27T08:22:32.050Z,91.39
2022-11-27T08:24:59.997Z,91.41
2022-11-27T08:27:28.016Z,90.88
2022-11-27T08:29:55.869Z,90.63
2022-11-27T08:32:23.905Z,90.64
2022-11-27T08:34:53.214Z,90.14
2022-11-27T08:37:22.029Z,89.13
2022-11-27T08:39:49.989Z,88.90
2022-11-27T08:42:17.960Z,87.76
2022-11-27T08:44:45.770Z,86.84
2022-11-27T08:47:15.572Z,87.37
2022-11-27T08:49:46.276Z,87.10
2022-11-27T08:52:15.840Z,86.90
2022-11-27T08:54:43.742Z,86.96
2022-11-27T08:57:11.568Z,86.95
2022-11-27T08:59:39.867Z,85.54
2022-11-27T09:02:07.739Z,85.62
2022-11-27T09:04:35.640Z,85.61
2022-11-27T09:07:03.710Z,85.59
2022-11-27T09:09:33.000Z,85.84
2022-11-27T09:12:01.065Z,86.14
2022-11-27T09:14:29.060Z,85.60
2022-11-27T09:16:56.959Z,85.24
2022-11-27T09:19:25.995Z,86.37
2022-11-27T09:21:56.714Z,84.45
2022-11-27T09:24:24.919Z,85.49
2022-11-27T09:26:54.407Z,85.07
2022-11-27T09:29:22.836Z,84.39
2022-11-27T09:31:51.964Z,83.94
2022-11-27T09:34:20.363Z,83.77
2022-11-27T09:36:48.944Z,83.48
2022-11-27T09:39:18.748Z,82.38
2022-11-27T09:41:50.631Z,83.12
2022-11-27T09:44:28.035Z,83.20
2022-11-27T09:46:57.895Z,83.11
2022-11-27T09:49:31.125Z,84.37
2022-11-27T09:52:04.462Z,84.96
2022-11-27T09:54:38.668Z,85.86
2022-11-27T09:57:07.868Z,85.68
2022-11-27T09:59:42.738Z,84.84
2022-11-27T10:02:18.280Z,84.80
2022-11-27T10:05:12.131Z,84.64
2022-11-27T10:07:46.202Z,84.22
2022-11-27T10:10:30.073Z,83.87
2022-11-27T10:13:04.043Z,84.20
2022-11-27T10:15:43.601Z,84.77
2022-11-27T10:18:17.843Z,84.44
2022-11-27T10:20:51.276Z,83.58
2022-11-27T10:23:28.599Z,83.94
2022-11-27T10:26:02.274Z,83.93
2022-11-27T10:28:38.910Z,82.94
2022-11-27T10:31:13.827Z,81.84
2022-11-27T10:33:47.183Z,81.16
2022-11-27T10:36:16.326Z,81.30
2022-11-27T10:38:45.607Z,82.24
2022-11-27T10:41:41.958Z,82.29
2022-11-27T10:44:29.277Z,82.20
2022-11-27T10:47:03.189Z,82.53
2022-11-27T10:49:31.499Z,82.88
2022-11-27T10:51:59.337Z,82.04
2022-11-27T10:54:30.344Z,81.70
2022-11-27T10:57:09.661Z,82.35
2022-11-27T10:59:44.859Z,81.82
2022-11-27T11:02:29.712Z,80.98
2022-11-27T11:05:24.074Z,81.07
2022-11-27T11:07:56.463Z,81.90
2022-11-27T11:10:29.783Z,81.74
2022-11-27T11:13:15.413Z,81.91
2022-11-27T11:16:02.262Z,81.19
2022-11-27T11:18:33.898Z,81.06
2022-11-27T11:21:05.365Z,80.17
2022-11-27T11:23:35.323Z,79.83
2022-11-27T11:26:08.202Z,79.28
2022-11-27T11:28:47.566Z,79.92
2022-11-27T11:31:20.508Z,79.96
2022-11-27T11:33:53.797Z,80.54
2022-11-27T11:36:21.882Z,80.70
2022-11-27T11:38:50.773Z,80.10
2022-11-27T11:41:19.141Z,80.76
2022-11-27T11:43:59.392Z,80.57
2022-11-27T11:46:30.001Z,80.61
2022-11-27T11:49:02.138Z,80.01
2022-11-27T11:52:06.019Z,80.19
2022-11-27T11:54:45.184Z,80.48
2022-11-27T11:57:32.435Z,80.43
2022-11-27T12:00:05.317Z,80.38
2022-11-27T12:02:43.496Z,80.24
2022-11-27T12:05:21.739Z,80.26
2022-11-27T12:08:07.971Z,80.70
2022-11-27T12:10:45.870Z,80.42
2022-11-27T12:13:31.699Z,81.40
2022-11-27T12:16:07.757Z,81.15
2022-11-27T12:18:52.912Z,81.50
2022-11-27T12:21:31.610Z,80.77
2022-11-27T12:24:15.930Z,80.29
2022-11-27T12:26:57.627Z,80.13
2022-11-27T12:29:53.961Z,78.95
2022-11-27T12:32:36.179Z,79.91
2022-11-27T12:35:20.755Z,80.26
2022-11-27T12:38:01.522Z,80.21
2022-11-27T12:40:40.970Z,79.90
2022-11-27T12:43:21.733Z,80.29
2022-11-27T12:45:56.973Z,80.36
2022-11-27T12:48:31.335Z,80.70
2022-11-27T12:51:03.216Z,80.64
2022-11-27T12:53:40.026Z,80.45
2022-11-27T12:56:13.953Z,80.38
2022-11-27T12:58:46.413Z,80.92
2022-11-27T13:01:21.381Z,81.13
2022-11-27T13:04:06.816Z,80.66
2022-11-27T13:06:41.452Z,81.08
2022-11-27T13:09:17.096Z,80.51
2022-11-27T13:11:45.470Z,81.05
2022-11-27T13:14:18.167Z,80.92
2022-11-27T13:16:51.525Z,81.21
2022-11-27T13:19:26.562Z,81.62
2022-11-27T13:21:57.406Z,81.50
2022-11-27T13:24:27.824Z,80.63
2022-11-27T13:27:03.386Z,80.61
2022-11-27T13:29:35.641Z,80.70
2022-11-27T13:32:05.357Z,80.69
2022-11-27T13:34:42.966Z,81.11
2022-11-27T13:37:22.999Z,81.43
2022-11-27T13:40:01.293Z,81.52
2022-11-27T13:42:29.485Z,80.37
2022-11-27T13:44:59.547Z,80.54
2022-11-27T13:47:31.752Z,81.02
2022-11-27T13:50:03.170Z,80.92
2022-11-27T13:52:33.905Z,81.20
2022-11-27T13:55:05.451Z,81.44
2022-11-27T13:57:34.385Z,81.47
2022-11-27T14:00:06.704Z,81.26
2022-11-27T14:02:43.078Z,81.24
2022-11-27T14:05:11.658Z,80.84
2022-11-27T14:07:42.811Z,81.07
2022-11-27T14:10:16.923Z,81.03
2022-11-27T14:12:55.257Z,80.61
2022-11-27T14:15:25.554Z,80.48
2022-11-27T14:18:05.464Z,80.56
2022-11-27T14:20:36.572Z,81.01
2022-11-27T14:23:12.179Z,80.51
2022-11-27T14:25:42.664Z,80.76
2022-11-27T14:28:16.126Z,80.98
2022-11-27T14:30:48.240Z,81.49
2022-11-27T14:33:21.591Z,81.25
2022-11-27T14:35:50.680Z,81.23
2022-11-27T14:38:18.593Z,81.37
2022-11-27T14:40:48.382Z,81.87
2022-11-27T14:43:18.309Z,81.77
2022-11-27T14:45:48.289Z,82.93
2022-11-27T14:48:24.855Z,82.73
2022-11-27T14:50:54.586Z,82.42
2022-11-27T14:53:26.452Z,82.90
2022-11-27T14:55:58.723Z,81.26
2022-11-27T14:58:29.006Z,82.47
2022-11-27T15:01:00.491Z,82.06
2022-11-27T15:03:29.812Z,80.83
2022-11-27T15:06:00.520Z,82.46
2022-11-27T15:08:30.709Z,81.66
2022-11-27T15:11:02.021Z,81.71
2022-11-27T15:13:34.536Z,81.03
2022-11-27T15:16:05.987Z,81.53
2022-11-27T15:18:37.252Z,81.97
2022-11-27T15:21:12.698Z,82.57
2022-11-27T15:23:46.099Z,81.74
2022-11-27T15:26:26.995Z,82.16
2022-11-27T15:28:57.366Z,83.26
2022-11-27T15:31:31.191Z,83.01
2022-11-27T15:34:05.385Z,82.73
2022-11-27T15:36:39.656Z,82.43
2022-11-27T15:39:20.773Z,82.45
2022-11-27T15:41:55.319Z,81.34
2022-11-27T15:44:24.272Z,82.88
2022-11-27T15:46:52.869Z,81.42
2022-11-27T15:49:20.788Z,81.34
2022-11-27T15:51:48.731Z,80.63
2022-11-27T15:54:16.757Z,80.86
2022-11-27T15:56:46.877Z,81.20
2022-11-27T15:59:17.056Z,82.37
2022-11-27T16:01:45.013Z,82.08
2022-11-27T16:04:12.936Z,81.62
2022-11-27T16:06:40.776Z,81.80
2022-11-27T16:09:08.782Z,81.83
2022-11-27T16:11:36.685Z,81.06
2022-11-27T16:14:04.781Z,81.00
2022-11-27T16:16:35.234Z,80.82
2022-11-27T16:19:05.516Z,80.11
2022-11-27T16:21:35.680Z,80.34
2022-11-27T16:24:06.688Z,80.21
2022-11-27T16:26:35.106Z,80.61
2022-11-27T16:29:03.250Z,80.78
2022-11-27T16:31:31.144Z,80.52
2022-11-27T16:34:01.941Z,80.94
2022-11-27T16:36:30.771Z,80.62
2022-11-27T16:38:58.611Z,79.27
2022-11-27T16:41:27.112Z,80.15
2022-11-27T16:43:56.946Z,79.09
2022-11-27T16:46:27.313Z,79.02
2022-11-27T16:48:55.925Z,78.79
2022-11-27T16:51:28.535Z,79.00
2022-11-27T16:53:58.255Z,79.43
2022-11-27T16:56:28.817Z,80.48
2022-11-27T16:59:02.636Z,79.85
2022-11-27T17:01:34.385Z,80.35
2022-11-27T17:04:04.816Z,80.75
2022-11-27T17:06:35.188Z,80.11
2022-11-27T17:09:05.561Z,79.76
2022-11-27T17:11:35.934Z,80.01
2022-11-27T17:14:06.244Z,81.17
2022-11-27T17:16:35.072Z,81.37
2022-11-27T17:19:03.765Z,80.63
2022-11-27T17:21:34.558Z,79.51
2022-11-27T17:24:04.215Z,79.84
2022-11-27T17:26:33.748Z,80.32
2022-11-27T17:29:03.424Z,80.48
2022-11-27T17:31:35.488Z,80.59
2022-11-27T17:34:03.642Z,80.24
2022-11-27T17:36:36.797Z,80.81
2022-11-27T17:39:06.636Z,80.45
2022-11-27T17:41:35.242Z,79.56
2022-11-27T17:44:05.276Z,80.18
2022-11-27T17:46:33.849Z,79.75
2022-11-27T17:49:03.369Z,80.54
2022-11-27T17:51:36.254Z,79.21
2022-11-27T17:54:05.624Z,78.91
2022-11-27T17:56:35.060Z,80.13
2022-11-27T17:59:03.315Z,79.30
2022-11-27T18:01:34.552Z,80.35
2022-11-27T18:04:04.759Z,80.19
2022-11-27T18:06:36.032Z,81.05
2022-11-27T18:09:05.678Z,80.33
2022-11-27T18:11:34.804Z,81.24
2022-11-27T18:14:02.857Z,81.13
2022-11-27T18:16:33.712Z,81.64
2022-11-27T18:19:05.566Z,82.49
2022-11-27T18:21:35.447Z,81.78
2022-11-27T18:27:07.768Z,81.83
2022-11-27T18:29:37.678Z,82.34
2022-11-27T18:32:08.545Z,83.34
2022-11-27T18:34:36.827Z,83.11
2022-11-27T18:37:06.812Z,82.78
2022-11-27T18:39:35.592Z,82.94
2022-11-27T18:42:05.090Z,83.09
2022-11-27T18:44:33.348Z,83.90
2022-11-27T18:47:01.386Z,83.59
2022-11-27T18:49:29.326Z,82.92
2022-11-27T18:51:57.182Z,83.50
2022-11-27T18:54:26.486Z,83.51
2022-11-27T18:56:54.356Z,84.69
2022-11-27T18:59:22.780Z,83.91
2022-11-27T19:01:50.999Z,83.75
2022-11-27T19:04:19.514Z,83.33
2022-11-27T19:06:48.049Z,82.75
2022-11-27T19:09:16.526Z,82.33
2022-11-27T19:11:45.836Z,81.88
2022-11-27T19:14:14.110Z,81.18
2022-11-27T19:16:46.638Z,81.18
2022-11-27T19:22:07.808Z,81.03
2022-11-27T19:24:35.901Z,80.36
2022-11-27T19:27:05.296Z,80.37
2022-11-27T19:29:33.662Z,80.34
2022-11-27T19:32:01.609Z,79.55
2022-11-27T19:34:29.892Z,80.29
2022-11-27T19:36:58.546Z,79.48
2022-11-27T19:39:27.231Z,80.67
2022-11-27T19:41:55.167Z,79.97
2022-11-27T19:44:25.091Z,80.73
2022-11-27T19:46:52.913Z,81.21
2022-11-27T19:49:21.463Z,80.61
2022-11-27T19:51:49.857Z,80.01
2022-11-27T19:54:19.325Z,80.89
2022-11-27T19:56:47.780Z,80.39
2022-11-27T19:59:15.894Z,80.43
2022-11-27T20:01:45.174Z,80.05
2022-11-27T20:04:15.314Z,80.08
2022-11-27T20:06:43.372Z,79.69
2022-11-27T20:09:14.029Z,79.99
2022-11-27T20:11:41.914Z,80.02
2022-11-27T20:14:10.192Z,80.67
2022-11-27T20:16:39.031Z,80.85
2022-11-27T20:19:08.293Z,81.44
2022-11-27T20:21:36.792Z,81.26
2022-11-27T20:24:05.493Z,82.11
2022-11-27T20:26:37.116Z,82.32
2022-11-27T20:29:08.234Z,82.95
2022-11-27T20:31:38.042Z,82.81
2022-11-27T20:34:08.314Z,82.58
2022-11-27T20:36:40.427Z,82.59
2022-11-27T20:39:12.986Z,83.86
2022-11-27T20:41:43.039Z,83.40
2022-11-27T20:44:12.316Z,83.13
2022-11-27T20:46:40.206Z,83.95
2022-11-27T20:49:09.712Z,83.56
2022-11-27T20:51:37.949Z,83.76
2022-11-27T20:54:06.479Z,83.67
2022-11-27T20:56:36.011Z,83.15
2022-11-27T20:59:05.116Z,82.34
2022-11-27T21:01:35.433Z,82.60
2022-11-27T21:04:09.371Z,82.45
2022-11-27T21:06:43.835Z,82.04
2022-11-27T21:09:14.130Z,83.05
2022-11-27T21:11:42.422Z,82.44
2022-11-27T21:14:12.925Z,81.62
2022-11-27T21:16:43.238Z,82.62
2022-11-27T21:19:15.819Z,80.95
2022-11-27T21:21:45.645Z,82.39
2022-11-27T21:24:14.413Z,82.25
2022-11-27T21:26:43.231Z,81.56
2022-11-27T21:29:14.473Z,81.29
2022-11-27T21:31:47.465Z,82.25
2022-11-27T21:34:16.434Z,82.56
2022-11-27T21:36:45.749Z,81.06
2022-11-27T21:39:20.422Z,81.96
2022-11-27T21:41:49.792Z,81.61
2022-11-27T21:44:20.714Z,82.07
2022-11-27T21:46:49.134Z,82.70
2022-11-27T21:49:17.938Z,82.24
2022-11-27T21:51:47.566Z,81.95
2022-11-27T21:54:16.020Z,82.60
2022-11-27T21:56:43.937Z,81.85
2022-11-27T21:59:14.296Z,82.33
2022-11-27T22:01:42.355Z,81.81
2022-11-27T22:04:10.260Z,81.84
2022-11-27T22:06:40.039Z,82.28
2022-11-27T22:09:15.064Z,82.84
2022-11-27T22:11:44.758Z,81.74
2022-11-27T22:14:13.078Z,82.51
2022-11-27T22:16:45.276Z,81.78
2022-11-27T22:19:14.330Z,82.87
2022-11-27T22:21:42.461Z,82.34
2022-11-27T22:24:16.852Z,82.50
2022-11-27T22:26:47.240Z,82.61
2022-11-27T22:29:15.077Z,82.14
2022-11-27T22:31:43.098Z,82.12
2022-11-27T22:34:11.012Z,83.25
2022-11-27T22:36:38.875Z,83.65
2022-11-27T22:39:09.083Z,83.20
2022-11-27T22:41:40.581Z,83.83
2022-11-27T22:44:09.503Z,83.55
2022-11-27T22:46:37.920Z,83.94
2022-11-27T22:49:07.399Z,83.83
2022-11-27T22:51:37.220Z,83.70
2022-11-27T22:54:07.882Z,84.00
2022-11-27T22:56:36.305Z,83.90
2022-11-27T22:59:31.015Z,84.40
2022-11-27T23:01:55.333Z,84.25
2022-11-27T23:04:23.224Z,84.81
2022-11-27T23:06:51.026Z,84.89
2022-11-27T23:09:19.578Z,85.43
2022-11-27T23:11:48.257Z,85.36
2022-11-27T23:14:18.141Z,85.38
2022-11-27T23:16:46.233Z,84.95
2022-11-27T23:19:14.127Z,84.58
2022-11-27T23:21:42.294Z,84.70
2022-11-27T23:24:13.401Z,85.31
2022-11-27T23:26:41.233Z,84.11
2022-11-27T23:29:12.027Z,84.57
2022-11-27T23:31:41.737Z,83.71
2022-11-27T23:34:14.294Z,84.03
2022-11-27T23:36:42.354Z,84.26
2022-11-27T23:39:13.288Z,84.82
2022-11-27T23:41:41.763Z,84.69
2022-11-27T23:44:09.747Z,85.17
2022-11-27T23:46:37.606Z,85.51
2022-11-27T23:49:06.908Z,84.88
2022-11-27T23:51:35.047Z,84.97
2022-11-27T23:54:06.839Z,84.86
2022-11-27T23:56:34.701Z,84.74
2022-11-27T23:59:02.509Z,83.92
